Lana — WDB2809 — position and weather

sailwx.info

Track history (hours):
 
Tides and Currents Weather Stations Pressure Air Temp Water Temp Dewpoint Dewpoint Depression Visibility Wind Speed Wind Dir Waves Ship Positions

Lana

Owner: MARINE EXPRESS INCORPORATION, ALAMEDA, CA. More information available from US FCC via Universal Licensing System.

Last reported at 2017-Nov-18 23:53 UTC. Time now 2017-Nov-19 06:39 UTC.
Position N 37°48' W 122°17'.

Length 19 m.

Type: Passenger vessel. MMSI: 338108125.

Date/timePositionNaut miles runAvg speedWind from/ knotsBaromVisibWave heightAir tempDewpointWater temp
2017-Nov-18 23:53N 37°48' W 122°17'3 8.6
2017-Nov-18 23:31N 37°48' W 122°22'3 1.6
2017-Nov-18 21:23N 37°47' W 122°17'3 8.8
2017-Nov-18 21:00N 37°48' W 122°21'0 0.1
2017-Nov-18 20:30N 37°48' W 122°21'0 0.0
2017-Nov-18 20:00N 37°48' W 122°21'0 0.2
2017-Nov-18 19:30N 37°48' W 122°21'0 0.1
2017-Nov-18 19:00N 37°48' W 122°21'0 0.1
2017-Nov-18 18:31N 37°47' W 122°21'0 0.0
2017-Nov-18 18:00N 37°48' W 122°21'3 6.5
2017-Nov-18 17:31N 37°47' W 122°17'3 6.3
2017-Nov-18 17:00N 37°47' W 122°21'0 0.2
2017-Nov-18 16:30N 37°48' W 122°21'0 0.1
2017-Nov-18 16:00N 37°47' W 122°21'3 6.4
2017-Nov-18 15:30N 37°47' W 122°17'0 0.0
2017-Nov-18 15:00N 37°47' W 122°17'0 0.0
2017-Nov-18 05:58N 37°47' W 122°17'3 5.7
2017-Nov-18 05:30N 37°48' W 122°21'1 1.3
2017-Nov-18 05:00N 37°47' W 122°21'0 0.0
2017-Nov-18 04:30N 37°47' W 122°21'1 1.3
2017-Nov-18 04:01N 37°48' W 122°21'3 5.2
2017-Nov-18 03:31N 37°47' W 122°17'0 0.0
2017-Nov-18 03:00N 37°47' W 122°17'0 0.0
2017-Nov-17 22:07N 37°47' W 122°17'0 0.0
2017-Nov-17 22:00N 37°47' W 122°17'3 5.2
2017-Nov-17 21:31N 37°47' W 122°21'2 4.1
2017-Nov-17 21:00N 37°48' W 122°18'1 0.1
2017-Nov-17 16:46N 37°47' W 122°17'0 0.4
2017-Nov-17 16:30N 37°47' W 122°17'0 0.1
2017-Nov-17 16:00N 37°47' W 122°17'0 0.1
2017-Nov-17 15:31N 37°47' W 122°17'0 0.0
2017-Nov-17 15:01N 37°47' W 122°17'0 0.0
2017-Nov-15 19:39N 37°47' W 122°17'1 3.9
2017-Nov-15 19:31N 37°48' W 122°18'2 3.8
2017-Nov-15 19:01N 37°47' W 122°20'2 4.8
2017-Nov-15 18:30N 37°47' W 122°17'0 0.4
2017-Nov-15 18:01N 37°48' W 122°18'0 0.0
2017-Nov-15 17:30N 37°48' W 122°18'0 0.4
2017-Nov-15 17:01N 37°47' W 122°17'0 0.0
2017-Nov-15 16:22N 37°47' W 122°17'2 6.7
2017-Nov-15 16:00N 37°47' W 122°20'2 3.8
2017-Nov-15 15:30N 37°45' W 122°20'0 0.2
2017-Nov-15 15:00N 37°46' W 122°20'3 6.0
2017-Nov-15 14:30N 37°47' W 122°17'0 0.0
2017-Nov-14 18:44N 37°47' W 122°17'0 0.8
2017-Nov-14 18:30N 37°47' W 122°17'0 0.3
2017-Nov-14 18:00N 37°47' W 122°17'0 0.0
2017-Nov-14 15:08N 37°47' W 122°17'0 3.3
2017-Nov-14 15:01N 37°48' W 122°18'3 5.4
2017-Nov-14 14:31N 37°46' W 122°20'3 5.8
2017-Nov-14 14:00N 37°47' W 122°17'0 0.0
2017-Nov-13 22:47N 37°47' W 122°17'2 7.2
2017-Nov-13 22:30N 37°48' W 122°20'2 3.2
2017-Nov-13 22:00N 37°48' W 122°18'0 0.0
2017-Nov-12 19:30N 37°47' W 122°17'3 5.6
2017-Nov-12 19:00N 37°46' W 122°20'3 1.2
2017-Nov-12 16:47N 37°47' W 122°17'2 8.3
2017-Nov-12 16:30N 37°48' W 122°20'2 4.7
2017-Nov-12 16:01N 37°45' W 122°21'0 0.2
2017-Nov-12 15:30N 37°45' W 122°21'3 6.6
2017-Nov-12 15:00N 37°48' W 122°18'0 0.5
2017-Nov-12 14:30N 37°47' W 122°17'0 0.0
2017-Nov-12 14:01N 37°47' W 122°17'0 0.0
2017-Nov-12 13:31N 37°47' W 122°17'2 4.2
2017-Nov-12 13:00N 37°48' W 122°20'3 5.1
2017-Nov-12 12:30N 37°45' W 122°21'0 0.1
2017-Nov-12 12:01N 37°45' W 122°21'3 6.7
2017-Nov-12 11:31N 37°47' W 122°17'0 0.0
2017-Nov-12 01:42N 37°47' W 122°17'1 6.3
2017-Nov-12 01:30N 37°48' W 122°19'3 5.6
2017-Nov-12 01:00N 37°46' W 122°21'3 5.6
2017-Nov-12 00:31N 37°48' W 122°19'1 0.5
2017-Nov-11 21:28N 37°47' W 122°17'4 8.9
2017-Nov-11 21:00N 37°50' W 122°22'5 9.9
2017-Nov-11 20:30N 37°53' W 122°26'1 2.5
2017-Nov-11 20:00N 37°55' W 122°26'4 8.5
2017-Nov-11 19:30N 37°51' W 122°23'5 9.7
2017-Nov-11 19:00N 37°48' W 122°19'1 0.1
2017-Nov-10 20:48N 37°47' W 122°17'0 0.1
2017-Nov-10 20:40N 37°47' W 122°17'0 0.3
2017-Nov-10 20:31N 37°47' W 122°17'028.7
2017-Nov-10 20:30N 37°47' W 122°17'0 0.1
2017-Nov-10 20:00N 37°47' W 122°17'0 0.3
2017-Nov-10 19:30N 37°47' W 122°17'016.2
2017-Nov-10 19:30N 37°47' W 122°17'0 0.0
2017-Nov-09 23:26N 37°47' W 122°17'0 0.3
2017-Nov-09 23:23N 37°47' W 122°17'0 0.1
2017-Nov-09 23:00N 37°47' W 122°17'0 8.6
2017-Nov-09 23:00N 37°47' W 122°17'0 0.1
2017-Nov-09 22:30N 37°47' W 122°17'018.0
2017-Nov-09 22:30N 37°47' W 122°17'0 0.2
2017-Nov-09 22:00N 37°47' W 122°17'0 3.6
2017-Nov-09 22:00N 37°47' W 122°17'0 0.0
2017-Nov-09 21:30N 37°47' W 122°17'0 0.0
2017-Nov-09 11:20N 37°47' W 122°17'3 8.2
2017-Nov-09 11:00N 37°48' W 122°21'611.4
2017-Nov-09 10:31N 37°53' W 122°25'2 4.7
2017-Nov-09 09:59N 37°55' W 122°26'613.1
2017-Nov-09 09:30N 37°50' W 122°22'4 8.1
2017-Nov-09 09:00N 37°47' W 122°17'  
Track history (hours):
 
Tides and Currents Weather Stations Pressure Air Temp Water Temp Dewpoint Dewpoint Depression Visibility Wind Speed Wind Dir Waves Ship Positions

Lana

Owner: MARINE EXPRESS INCORPORATION, ALAMEDA, CA. More information available from US FCC via Universal Licensing System.

Last reported at 2017-Nov-18 23:53 UTC. Time now 2017-Nov-19 06:39 UTC.
Position N 37°48' W 122°17'.

Length 19 m.

Type: Passenger vessel. MMSI: 338108125.

Date/timePositionNaut miles runAvg speedWind from/ knotsBaromVisibWave heightAir tempDewpointWater temp
2017-Nov-18 23:53N 37°48' W 122°17'3 8.6
2017-Nov-18 23:31N 37°48' W 122°22'3 1.6
2017-Nov-18 21:23N 37°47' W 122°17'3 8.8
2017-Nov-18 21:00N 37°48' W 122°21'0 0.1
2017-Nov-18 20:30N 37°48' W 122°21'0 0.0
2017-Nov-18 20:00N 37°48' W 122°21'0 0.2
2017-Nov-18 19:30N 37°48' W 122°21'0 0.1
2017-Nov-18 19:00N 37°48' W 122°21'0 0.1
2017-Nov-18 18:31N 37°47' W 122°21'0 0.0
2017-Nov-18 18:00N 37°48' W 122°21'3 6.5
2017-Nov-18 17:31N 37°47' W 122°17'3 6.3
2017-Nov-18 17:00N 37°47' W 122°21'0 0.2
2017-Nov-18 16:30N 37°48' W 122°21'0 0.1
2017-Nov-18 16:00N 37°47' W 122°21'3 6.4
2017-Nov-18 15:30N 37°47' W 122°17'0 0.0
2017-Nov-18 15:00N 37°47' W 122°17'0 0.0
2017-Nov-18 05:58N 37°47' W 122°17'3 5.7
2017-Nov-18 05:30N 37°48' W 122°21'1 1.3
2017-Nov-18 05:00N 37°47' W 122°21'0 0.0
2017-Nov-18 04:30N 37°47' W 122°21'1 1.3
2017-Nov-18 04:01N 37°48' W 122°21'3 5.2
2017-Nov-18 03:31N 37°47' W 122°17'0 0.0
2017-Nov-18 03:00N 37°47' W 122°17'0 0.0
2017-Nov-17 22:07N 37°47' W 122°17'0 0.0
2017-Nov-17 22:00N 37°47' W 122°17'3 5.2
2017-Nov-17 21:31N 37°47' W 122°21'2 4.1
2017-Nov-17 21:00N 37°48' W 122°18'1 0.1
2017-Nov-17 16:46N 37°47' W 122°17'0 0.4
2017-Nov-17 16:30N 37°47' W 122°17'0 0.1
2017-Nov-17 16:00N 37°47' W 122°17'0 0.1
2017-Nov-17 15:31N 37°47' W 122°17'0 0.0
2017-Nov-17 15:01N 37°47' W 122°17'0 0.0
2017-Nov-15 19:39N 37°47' W 122°17'1 3.9
2017-Nov-15 19:31N 37°48' W 122°18'2 3.8
2017-Nov-15 19:01N 37°47' W 122°20'2 4.8
2017-Nov-15 18:30N 37°47' W 122°17'0 0.4
2017-Nov-15 18:01N 37°48' W 122°18'0 0.0
2017-Nov-15 17:30N 37°48' W 122°18'0 0.4
2017-Nov-15 17:01N 37°47' W 122°17'0 0.0
2017-Nov-15 16:22N 37°47' W 122°17'2 6.7
2017-Nov-15 16:00N 37°47' W 122°20'2 3.8
2017-Nov-15 15:30N 37°45' W 122°20'0 0.2
2017-Nov-15 15:00N 37°46' W 122°20'3 6.0
2017-Nov-15 14:30N 37°47' W 122°17'0 0.0
2017-Nov-14 18:44N 37°47' W 122°17'0 0.8
2017-Nov-14 18:30N 37°47' W 122°17'0 0.3
2017-Nov-14 18:00N 37°47' W 122°17'0 0.0
2017-Nov-14 15:08N 37°47' W 122°17'0 3.3
2017-Nov-14 15:01N 37°48' W 122°18'3 5.4
2017-Nov-14 14:31N 37°46' W 122°20'3 5.8
2017-Nov-14 14:00N 37°47' W 122°17'0 0.0
2017-Nov-13 22:47N 37°47' W 122°17'2 7.2
2017-Nov-13 22:30N 37°48' W 122°20'2 3.2
2017-Nov-13 22:00N 37°48' W 122°18'0 0.0
2017-Nov-12 19:30N 37°47' W 122°17'3 5.6
2017-Nov-12 19:00N 37°46' W 122°20'3 1.2
2017-Nov-12 16:47N 37°47' W 122°17'2 8.3
2017-Nov-12 16:30N 37°48' W 122°20'2 4.7
2017-Nov-12 16:01N 37°45' W 122°21'0 0.2
2017-Nov-12 15:30N 37°45' W 122°21'3 6.6
2017-Nov-12 15:00N 37°48' W 122°18'0 0.5
2017-Nov-12 14:30N 37°47' W 122°17'0 0.0
2017-Nov-12 14:01N 37°47' W 122°17'0 0.0
2017-Nov-12 13:31N 37°47' W 122°17'2 4.2
2017-Nov-12 13:00N 37°48' W 122°20'3 5.1
2017-Nov-12 12:30N 37°45' W 122°21'0 0.1
2017-Nov-12 12:01N 37°45' W 122°21'3 6.7
2017-Nov-12 11:31N 37°47' W 122°17'0 0.0
2017-Nov-12 01:42N 37°47' W 122°17'1 6.3
2017-Nov-12 01:30N 37°48' W 122°19'3 5.6
2017-Nov-12 01:00N 37°46' W 122°21'3 5.6
2017-Nov-12 00:31N 37°48' W 122°19'1 0.5
2017-Nov-11 21:28N 37°47' W 122°17'4 8.9
2017-Nov-11 21:00N 37°50' W 122°22'5 9.9
2017-Nov-11 20:30N 37°53' W 122°26'1 2.5
2017-Nov-11 20:00N 37°55' W 122°26'4 8.5
2017-Nov-11 19:30N 37°51' W 122°23'5 9.7
2017-Nov-11 19:00N 37°48' W 122°19'1 0.1
2017-Nov-10 20:48N 37°47' W 122°17'0 0.1
2017-Nov-10 20:40N 37°47' W 122°17'0 0.3
2017-Nov-10 20:31N 37°47' W 122°17'028.7
2017-Nov-10 20:30N 37°47' W 122°17'0 0.1
2017-Nov-10 20:00N 37°47' W 122°17'0 0.3
2017-Nov-10 19:30N 37°47' W 122°17'016.2
2017-Nov-10 19:30N 37°47' W 122°17'0 0.0
2017-Nov-09 23:26N 37°47' W 122°17'0 0.3
2017-Nov-09 23:23N 37°47' W 122°17'0 0.1
2017-Nov-09 23:00N 37°47' W 122°17'0 8.6
2017-Nov-09 23:00N 37°47' W 122°17'0 0.1
2017-Nov-09 22:30N 37°47' W 122°17'018.0
2017-Nov-09 22:30N 37°47' W 122°17'0 0.2
2017-Nov-09 22:00N 37°47' W 122°17'0 3.6
2017-Nov-09 22:00N 37°47' W 122°17'0 0.0
2017-Nov-09 21:30N 37°47' W 122°17'0 0.0
2017-Nov-09 11:20N 37°47' W 122°17'3 8.2
2017-Nov-09 11:00N 37°48' W 122°21'611.4
2017-Nov-09 10:31N 37°53' W 122°25'2 4.7
2017-Nov-09 09:59N 37°55' W 122°26'613.1
2017-Nov-09 09:30N 37°50' W 122°22'4 8.1
2017-Nov-09 09:00N 37°47' W 122°17'  

Dump ship's entire track history